sensor_id;sensor_type;location;lat;lon;timestamp;P1;durP1;ratioP1;P2;durP2;ratioP2
18793;SDS011;29610;49.022;12.114;2023-08-06T00:00:43;28.90;;;18.00;;
18793;SDS011;29610;49.022;12.114;2023-08-06T00:03:13;27.10;;;16.40;;
18793;SDS011;29610;49.022;12.114;2023-08-06T00:05:41;31.50;;;20.27;;
18793;SDS011;29610;49.022;12.114;2023-08-06T00:08:10;30.10;;;19.10;;
18793;SDS011;29610;49.022;12.114;2023-08-06T00:10:39;32.70;;;19.00;;
18793;SDS011;29610;49.022;12.114;2023-08-06T00:13:08;33.50;;;20.30;;
18793;SDS011;29610;49.022;12.114;2023-08-06T00:15:36;41.60;;;20.90;;
18793;SDS011;29610;49.022;12.114;2023-08-06T00:18:05;33.93;;;20.07;;
18793;SDS011;29610;49.022;12.114;2023-08-06T00:20:35;38.90;;;25.40;;
18793;SDS011;29610;49.022;12.114;2023-08-06T00:23:07;36.90;;;21.30;;
18793;SDS011;29610;49.022;12.114;2023-08-06T00:25:36;35.23;;;20.40;;
18793;SDS011;29610;49.022;12.114;2023-08-06T00:28:05;34.20;;;19.87;;
18793;SDS011;29610;49.022;12.114;2023-08-06T00:30:33;39.20;;;22.30;;
18793;SDS011;29610;49.022;12.114;2023-08-06T00:33:02;38.87;;;24.33;;
18793;SDS011;29610;49.022;12.114;2023-08-06T00:35:31;35.97;;;20.87;;
18793;SDS011;29610;49.022;12.114;2023-08-06T00:38:01;41.77;;;22.93;;
18793;SDS011;29610;49.022;12.114;2023-08-06T00:40:29;47.40;;;25.77;;
18793;SDS011;29610;49.022;12.114;2023-08-06T00:42:58;37.23;;;20.90;;
18793;SDS011;29610;49.022;12.114;2023-08-06T00:45:26;38.67;;;24.07;;
18793;SDS011;29610;49.022;12.114;2023-08-06T00:47:57;40.50;;;23.60;;
18793;SDS011;29610;49.022;12.114;2023-08-06T00:50:26;35.83;;;22.30;;
18793;SDS011;29610;49.022;12.114;2023-08-06T00:52:55;38.93;;;22.23;;
18793;SDS011;29610;49.022;12.114;2023-08-06T00:55:25;38.67;;;22.87;;
18793;SDS011;29610;49.022;12.114;2023-08-06T00:57:54;36.73;;;22.40;;
18793;SDS011;29610;49.022;12.114;2023-08-06T01:00:24;37.43;;;21.77;;
18793;SDS011;29610;49.022;12.114;2023-08-06T01:02:53;40.47;;;23.80;;
18793;SDS011;29610;49.022;12.114;2023-08-06T01:05:22;37.37;;;21.23;;
18793;SDS011;29610;49.022;12.114;2023-08-06T01:07:54;38.30;;;22.27;;
18793;SDS011;29610;49.022;12.114;2023-08-06T01:10:45;34.63;;;19.87;;
18793;SDS011;29610;49.022;12.114;2023-08-06T01:13:32;29.77;;;19.67;;
18793;SDS011;29610;49.022;12.114;2023-08-06T01:16:10;33.13;;;19.43;;
18793;SDS011;29610;49.022;12.114;2023-08-06T01:18:42;34.40;;;20.47;;
18793;SDS011;29610;49.022;12.114;2023-08-06T01:21:14;34.47;;;20.93;;
18793;SDS011;29610;49.022;12.114;2023-08-06T01:23:43;32.87;;;20.50;;
18793;SDS011;29610;49.022;12.114;2023-08-06T01:26:14;33.70;;;21.03;;
18793;SDS011;29610;49.022;12.114;2023-08-06T01:28:52;34.23;;;21.10;;
18793;SDS011;29610;49.022;12.114;2023-08-06T01:31:31;35.73;;;20.70;;
18793;SDS011;29610;49.022;12.114;2023-08-06T01:34:06;41.50;;;22.53;;
18793;SDS011;29610;49.022;12.114;2023-08-06T01:36:43;35.73;;;21.77;;
18793;SDS011;29610;49.022;12.114;2023-08-06T01:39:12;35.63;;;20.93;;
18793;SDS011;29610;49.022;12.114;2023-08-06T01:41:41;37.10;;;20.50;;
18793;SDS011;29610;49.022;12.114;2023-08-06T01:44:10;36.30;;;20.70;;
18793;SDS011;29610;49.022;12.114;2023-08-06T01:46:38;35.23;;;19.93;;
18793;SDS011;29610;49.022;12.114;2023-08-06T01:49:07;31.77;;;17.90;;
18793;SDS011;29610;49.022;12.114;2023-08-06T01:51:37;28.13;;;16.63;;
18793;SDS011;29610;49.022;12.114;2023-08-06T01:54:06;25.80;;;15.10;;
18793;SDS011;29610;49.022;12.114;2023-08-06T01:56:35;24.20;;;15.27;;
18793;SDS011;29610;49.022;12.114;2023-08-06T01:59:04;19.40;;;12.60;;
18793;SDS011;29610;49.022;12.114;2023-08-06T02:01:32;20.80;;;13.03;;
18793;SDS011;29610;49.022;12.114;2023-08-06T02:04:01;20.70;;;12.47;;
18793;SDS011;29610;49.022;12.114;2023-08-06T02:06:29;18.53;;;11.90;;
18793;SDS011;29610;49.022;12.114;2023-08-06T02:08:58;18.33;;;10.70;;
18793;SDS011;29610;49.022;12.114;2023-08-06T02:11:28;20.07;;;10.97;;
18793;SDS011;29610;49.022;12.114;2023-08-06T02:13:56;17.60;;;10.40;;
18793;SDS011;29610;49.022;12.114;2023-08-06T02:16:25;14.60;;;9.20;;
18793;SDS011;29610;49.022;12.114;2023-08-06T02:18:53;13.17;;;8.00;;
18793;SDS011;29610;49.022;12.114;2023-08-06T02:21:26;10.90;;;6.77;;
18793;SDS011;29610;49.022;12.114;2023-08-06T02:23:55;12.50;;;7.30;;
18793;SDS011;29610;49.022;12.114;2023-08-06T02:26:24;11.80;;;6.57;;
18793;SDS011;29610;49.022;12.114;2023-08-06T02:28:56;13.10;;;6.20;;
18793;SDS011;29610;49.022;12.114;2023-08-06T02:31:25;12.53;;;5.60;;
18793;SDS011;29610;49.022;12.114;2023-08-06T02:33:53;10.03;;;5.43;;
18793;SDS011;29610;49.022;12.114;2023-08-06T02:36:22;13.00;;;6.40;;
18793;SDS011;29610;49.022;12.114;2023-08-06T02:38:50;10.63;;;5.60;;
18793;SDS011;29610;49.022;12.114;2023-08-06T02:41:19;13.03;;;6.40;;
18793;SDS011;29610;49.022;12.114;2023-08-06T02:43:47;11.73;;;6.17;;
18793;SDS011;29610;49.022;12.114;2023-08-06T02:46:18;10.53;;;5.97;;
18793;SDS011;29610;49.022;12.114;2023-08-06T02:48:46;12.23;;;5.70;;
18793;SDS011;29610;49.022;12.114;2023-08-06T02:51:16;10.20;;;5.50;;
18793;SDS011;29610;49.022;12.114;2023-08-06T02:53:44;12.20;;;5.67;;
18793;SDS011;29610;49.022;12.114;2023-08-06T02:56:16;14.53;;;7.30;;
18793;SDS011;29610;49.022;12.114;2023-08-06T02:59:03;10.77;;;5.87;;
18793;SDS011;29610;49.022;12.114;2023-08-06T03:01:43;11.53;;;6.53;;
18793;SDS011;29610;49.022;12.114;2023-08-06T03:04:18;12.80;;;5.90;;
18793;SDS011;29610;49.022;12.114;2023-08-06T03:06:49;10.70;;;6.00;;
18793;SDS011;29610;49.022;12.114;2023-08-06T03:09:21;11.53;;;5.27;;
18793;SDS011;29610;49.022;12.114;2023-08-06T03:11:50;15.10;;;5.80;;
18793;SDS011;29610;49.022;12.114;2023-08-06T03:14:20;11.37;;;5.93;;
18793;SDS011;29610;49.022;12.114;2023-08-06T03:16:49;11.07;;;6.20;;
18793;SDS011;29610;49.022;12.114;2023-08-06T03:19:19;11.80;;;5.83;;
18793;SDS011;29610;49.022;12.114;2023-08-06T03:21:48;12.27;;;6.07;;
18793;SDS011;29610;49.022;12.114;2023-08-06T03:24:17;9.20;;;5.20;;
18793;SDS011;29610;49.022;12.114;2023-08-06T03:26:46;10.10;;;5.63;;
18793;SDS011;29610;49.022;12.114;2023-08-06T03:29:14;9.93;;;5.10;;
18793;SDS011;29610;49.022;12.114;2023-08-06T03:31:44;16.70;;;5.97;;
18793;SDS011;29610;49.022;12.114;2023-08-06T03:34:16;10.97;;;6.07;;
18793;SDS011;29610;49.022;12.114;2023-08-06T03:36:46;11.87;;;6.30;;
18793;SDS011;29610;49.022;12.114;2023-08-06T03:39:14;11.77;;;6.17;;
18793;SDS011;29610;49.022;12.114;2023-08-06T03:41:43;12.63;;;6.37;;
18793;SDS011;29610;49.022;12.114;2023-08-06T03:44:11;15.50;;;7.20;;
18793;SDS011;29610;49.022;12.114;2023-08-06T03:46:41;13.20;;;6.60;;
18793;SDS011;29610;49.022;12.114;2023-08-06T03:49:10;12.00;;;6.67;;
18793;SDS011;29610;49.022;12.114;2023-08-06T03:51:41;13.03;;;6.13;;
18793;SDS011;29610;49.022;12.114;2023-08-06T03:54:10;12.77;;;7.07;;
18793;SDS011;29610;49.022;12.114;2023-08-06T03:56:38;14.17;;;6.83;;
18793;SDS011;29610;49.022;12.114;2023-08-06T03:59:08;12.90;;;6.60;;
18793;SDS011;29610;49.022;12.114;2023-08-06T04:01:36;15.70;;;6.43;;
18793;SDS011;29610;49.022;12.114;2023-08-06T04:04:05;14.07;;;7.10;;
18793;SDS011;29610;49.022;12.114;2023-08-06T04:06:34;11.17;;;5.53;;
18793;SDS011;29610;49.022;12.114;2023-08-06T04:09:06;11.30;;;6.20;;
18793;SDS011;29610;49.022;12.114;2023-08-06T04:11:36;13.40;;;6.67;;
18793;SDS011;29610;49.022;12.114;2023-08-06T04:14:04;11.83;;;6.30;;
18793;SDS011;29610;49.022;12.114;2023-08-06T04:16:33;10.57;;;6.00;;
18793;SDS011;29610;49.022;12.114;2023-08-06T04:19:01;11.30;;;6.47;;
18793;SDS011;29610;49.022;12.114;2023-08-06T04:21:30;16.40;;;6.93;;
18793;SDS011;29610;49.022;12.114;2023-08-06T04:23:59;13.47;;;6.90;;
18793;SDS011;29610;49.022;12.114;2023-08-06T04:26:29;12.50;;;6.47;;
18793;SDS011;29610;49.022;12.114;2023-08-06T04:28:59;14.60;;;7.33;;
18793;SDS011;29610;49.022;12.114;2023-08-06T04:31:28;12.67;;;6.63;;
18793;SDS011;29610;49.022;12.114;2023-08-06T04:33:57;13.10;;;6.80;;
18793;SDS011;29610;49.022;12.114;2023-08-06T04:36:25;12.63;;;6.90;;
18793;SDS011;29610;49.022;12.114;2023-08-06T04:38:54;11.57;;;6.37;;
18793;SDS011;29610;49.022;12.114;2023-08-06T04:41:23;13.33;;;6.40;;
18793;SDS011;29610;49.022;12.114;2023-08-06T04:43:53;11.63;;;6.50;;
18793;SDS011;29610;49.022;12.114;2023-08-06T04:46:22;12.03;;;6.47;;
18793;SDS011;29610;49.022;12.114;2023-08-06T04:48:50;12.10;;;6.43;;
18793;SDS011;29610;49.022;12.114;2023-08-06T04:51:19;13.60;;;6.97;;
18793;SDS011;29610;49.022;12.114;2023-08-06T04:53:47;11.80;;;6.63;;
18793;SDS011;29610;49.022;12.114;2023-08-06T04:56:16;10.80;;;5.80;;
18793;SDS011;29610;49.022;12.114;2023-08-06T04:58:44;12.80;;;5.77;;
18793;SDS011;29610;49.022;12.114;2023-08-06T05:01:14;16.13;;;6.10;;
18793;SDS011;29610;49.022;12.114;2023-08-06T05:03:43;11.27;;;6.17;;
18793;SDS011;29610;49.022;12.114;2023-08-06T05:06:11;11.93;;;6.73;;
18793;SDS011;29610;49.022;12.114;2023-08-06T05:08:40;10.47;;;5.70;;
18793;SDS011;29610;49.022;12.114;2023-08-06T05:11:09;13.20;;;6.50;;
18793;SDS011;29610;49.022;12.114;2023-08-06T05:13:37;18.23;;;5.87;;
18793;SDS011;29610;49.022;12.114;2023-08-06T05:16:06;11.83;;;5.87;;
18793;SDS011;29610;49.022;12.114;2023-08-06T05:18:36;9.70;;;5.10;;
18793;SDS011;29610;49.022;12.114;2023-08-06T05:21:05;10.67;;;5.20;;
18793;SDS011;29610;49.022;12.114;2023-08-06T05:23:33;13.20;;;4.50;;
18793;SDS011;29610;49.022;12.114;2023-08-06T05:26:02;10.20;;;4.83;;
18793;SDS011;29610;49.022;12.114;2023-08-06T05:28:30;9.43;;;4.90;;
18793;SDS011;29610;49.022;12.114;2023-08-06T05:31:02;9.83;;;4.83;;
18793;SDS011;29610;49.022;12.114;2023-08-06T05:33:31;9.00;;;4.20;;
18793;SDS011;29610;49.022;12.114;2023-08-06T05:36:01;9.73;;;4.63;;
18793;SDS011;29610;49.022;12.114;2023-08-06T05:38:30;10.53;;;5.20;;
18793;SDS011;29610;49.022;12.114;2023-08-06T05:40:59;8.90;;;4.40;;
18793;SDS011;29610;49.022;12.114;2023-08-06T05:43:36;10.20;;;4.27;;
18793;SDS011;29610;49.022;12.114;2023-08-06T05:46:15;9.83;;;4.90;;
18793;SDS011;29610;49.022;12.114;2023-08-06T05:49:01;9.30;;;4.23;;
18793;SDS011;29610;49.022;12.114;2023-08-06T05:56:22;8.03;;;3.20;;
18793;SDS011;29610;49.022;12.114;2023-08-06T05:59:55;8.90;;;4.30;;
18793;SDS011;29610;49.022;12.114;2023-08-06T06:07:06;8.70;;;3.00;;
18793;SDS011;29610;49.022;12.114;2023-08-06T07:27:07;8.63;;;3.20;;
18793;SDS011;29610;49.022;12.114;2023-08-06T07:30:07;8.80;;;3.67;;
18793;SDS011;29610;49.022;12.114;2023-08-06T07:33:42;8.03;;;2.93;;
18793;SDS011;29610;49.022;12.114;2023-08-06T07:37:01;11.20;;;3.17;;
18793;SDS011;29610;49.022;12.114;2023-08-06T07:45:11;7.37;;;2.70;;
18793;SDS011;29610;49.022;12.114;2023-08-06T07:53:44;7.60;;;2.40;;
18793;SDS011;29610;49.022;12.114;2023-08-06T08:10:49;7.73;;;2.13;;
18793;SDS011;29610;49.022;12.114;2023-08-06T08:14:24;7.30;;;2.33;;
18793;SDS011;29610;49.022;12.114;2023-08-06T08:17:33;6.80;;;2.20;;
18793;SDS011;29610;49.022;12.114;2023-08-06T08:25:20;9.00;;;2.40;;
18793;SDS011;29610;49.022;12.114;2023-08-06T08:40:26;6.90;;;2.00;;
18793;SDS011;29610;49.022;12.114;2023-08-06T08:44:30;6.90;;;2.00;;
18793;SDS011;29610;49.022;12.114;2023-08-06T08:57:05;7.47;;;2.30;;
18793;SDS011;29610;49.022;12.114;2023-08-06T09:02:02;12.30;;;3.03;;
18793;SDS011;29610;49.022;12.114;2023-08-06T15:01:32;4.90;;;0.70;;
18793;SDS011;29610;49.022;12.114;2023-08-06T15:05:07;5.30;;;0.87;;
18793;SDS011;29610;49.022;12.114;2023-08-06T15:08:53;5.20;;;0.80;;
18793;SDS011;29610;49.022;12.114;2023-08-06T15:13:06;5.10;;;0.80;;
18793;SDS011;29610;49.022;12.114;2023-08-06T15:24:22;5.73;;;0.77;;
18793;SDS011;29610;49.022;12.114;2023-08-06T15:31:24;5.40;;;0.87;;
18793;SDS011;29610;49.022;12.114;2023-08-06T15:34:42;5.80;;;1.03;;
18793;SDS011;29610;49.022;12.114;2023-08-06T15:37:31;5.13;;;0.90;;
18793;SDS011;29610;49.022;12.114;2023-08-06T15:40:20;6.83;;;1.00;;
18793;SDS011;29610;49.022;12.114;2023-08-06T15:43:44;5.20;;;0.90;;
18793;SDS011;29610;49.022;12.114;2023-08-06T15:52:16;5.17;;;0.90;;
18793;SDS011;29610;49.022;12.114;2023-08-06T15:55:42;7.00;;;0.80;;
18793;SDS011;29610;49.022;12.114;2023-08-06T16:00:04;6.07;;;1.17;;
18793;SDS011;29610;49.022;12.114;2023-08-06T16:11:17;6.00;;;1.20;;
18793;SDS011;29610;49.022;12.114;2023-08-06T16:18:37;6.30;;;1.27;;
18793;SDS011;29610;49.022;12.114;2023-08-06T20:20:58;7.10;;;1.20;;
18793;SDS011;29610;49.022;12.114;2023-08-06T20:34:01;7.53;;;1.67;;
18793;SDS011;29610;49.022;12.114;2023-08-06T20:50:31;5.50;;;1.00;;
18793;SDS011;29610;49.022;12.114;2023-08-06T20:54:55;6.10;;;1.30;;
18793;SDS011;29610;49.022;12.114;2023-08-06T21:03:06;5.47;;;1.00;;
18793;SDS011;29610;49.022;12.114;2023-08-06T21:11:21;5.30;;;1.17;;
18793;SDS011;29610;49.022;12.114;2023-08-06T21:14:47;6.23;;;1.37;;
18793;SDS011;29610;49.022;12.114;2023-08-06T21:18:54;7.53;;;1.43;;
18793;SDS011;29610;49.022;12.114;2023-08-06T21:22:20;5.30;;;1.10;;
18793;SDS011;29610;49.022;12.114;2023-08-06T21:34:56;5.53;;;1.27;;
18793;SDS011;29610;49.022;12.114;2023-08-06T21:38:14;5.67;;;1.40;;
18793;SDS011;29610;49.022;12.114;2023-08-06T21:42:13;8.63;;;1.63;;
18793;SDS011;29610;49.022;12.114;2023-08-06T21:49:29;6.37;;;1.47;;
18793;SDS011;29610;49.022;12.114;2023-08-06T21:52:27;5.77;;;1.50;;
18793;SDS011;29610;49.022;12.114;2023-08-06T21:55:32;6.70;;;1.43;;
18793;SDS011;29610;49.022;12.114;2023-08-06T22:05:45;6.00;;;1.47;;
18793;SDS011;29610;49.022;12.114;2023-08-06T22:09:01;7.30;;;1.90;;
18793;SDS011;29610;49.022;12.114;2023-08-06T22:12:19;9.60;;;2.83;;
18793;SDS011;29610;49.022;12.114;2023-08-06T22:19:25;5.50;;;1.50;;
18793;SDS011;29610;49.022;12.114;2023-08-06T22:22:26;6.13;;;1.83;;
18793;SDS011;29610;49.022;12.114;2023-08-06T22:26:08;7.33;;;1.90;;
18793;SDS011;29610;49.022;12.114;2023-08-06T22:29:31;7.30;;;2.67;;
18793;SDS011;29610;49.022;12.114;2023-08-06T22:32:53;6.70;;;2.10;;
18793;SDS011;29610;49.022;12.114;2023-08-06T22:36:04;8.67;;;2.80;;
18793;SDS011;29610;49.022;12.114;2023-08-06T22:39:33;7.60;;;2.10;;
18793;SDS011;29610;49.022;12.114;2023-08-06T22:43:12;8.10;;;2.33;;
18793;SDS011;29610;49.022;12.114;2023-08-06T22:46:13;9.63;;;2.83;;
18793;SDS011;29610;49.022;12.114;2023-08-06T22:49:00;6.30;;;2.00;;
18793;SDS011;29610;49.022;12.114;2023-08-06T22:52:07;6.77;;;2.77;;
18793;SDS011;29610;49.022;12.114;2023-08-06T22:55:05;7.10;;;2.50;;
18793;SDS011;29610;49.022;12.114;2023-08-06T22:58:50;8.37;;;2.40;;
18793;SDS011;29610;49.022;12.114;2023-08-06T23:02:18;6.80;;;2.10;;
18793;SDS011;29610;49.022;12.114;2023-08-06T23:05:36;8.07;;;2.50;;
18793;SDS011;29610;49.022;12.114;2023-08-06T23:08:57;11.07;;;3.00;;
18793;SDS011;29610;49.022;12.114;2023-08-06T23:12:16;7.73;;;2.47;;
18793;SDS011;29610;49.022;12.114;2023-08-06T23:15:58;7.00;;;2.47;;
18793;SDS011;29610;49.022;12.114;2023-08-06T23:19:28;6.30;;;2.00;;
18793;SDS011;29610;49.022;12.114;2023-08-06T23:23:23;8.63;;;2.50;;
18793;SDS011;29610;49.022;12.114;2023-08-06T23:27:03;12.10;;;2.13;;
18793;SDS011;29610;49.022;12.114;2023-08-06T23:31:04;7.77;;;2.20;;
18793;SDS011;29610;49.022;12.114;2023-08-06T23:34:21;6.03;;;1.90;;
18793;SDS011;29610;49.022;12.114;2023-08-06T23:52:09;6.33;;;2.07;;
18793;SDS011;29610;49.022;12.114;2023-08-06T23:55:32;5.60;;;1.63;;
18793;SDS011;29610;49.022;12.114;2023-08-06T23:59:11;9.80;;;1.73;;
